Terminal Aerodrome Forecast
Issued by NWS Buffalo, NY

Home | Current Version | Previous Version | Text Only | Print | Product List | Glossary On
Versions: 1 2 3 4 5 6 7 8 9 10 11 12 13 14 15 16 17 18 19 20 21 22 23 24 25 26
000
FTUS41 KBUF 262300
TAFBUF
TAF
KBUF 262325Z 2700/2724 26008KT P6SM BKN050
     FM270300 29004KT P6SM BKN050
     FM270800 27004KT P6SM OVC025
     FM271100 30006KT P6SM VCSH BKN007
     FM271400 32007KT P6SM VCSH OVC015
     FM271700 32012KT P6SM OVC035=

USA.gov is the U.S. government's official web portal to all federal, state and local government web resources and services.